aviador You're here:

KSHM Decoded Metar

in
Report Time2017-11-23 13:58:00
UTC Time2017-11-23 14:48:41
Flight Rules vfr VFR
Wind300° at 05 kt
W.Rank300° ranks 8
Current wind is below 300° avg. (9.2)
Visibility9999 m
Phenomena:N/A
Clouds:N/A
Expected CloudBase > 3,600 ft AGL from Temp-Dew spread
CeilingNone
Temp08°C
Dew Point-1°C (53% RH)
AAT4.1°C
QNH1025 hPa
Raw Report
METAR KSHM 231358Z AUTO 30005KT 10SM CLR 08/M01 A3028 RMK AO2 SLP234
T00811012=

Extra information for KSHM:More info

Social comments